Peyton, CO

1:23 AM MST on February 25, 2017 (GMT -0700)
Meadow Lake

Weather History for KFLY - May, 2014

Change the Weather History Date:

Monday, May 5, 2014

  Actual Average (KCOS) Record (KCOS)
Temperature  
Mean Temperature 66 °F -  
Max Temperature 78 °F 64 °F 90 °F (1947)
Min Temperature 54 °F 39 °F 23 °F (1917)
Cooling Degree Days 2    
Growing Degree Days 16 (Base 50)    
Moisture  
Dew Point 13 °F    
Average Humidity 14    
Maximum Humidity 49    
Minimum Humidity 8    
Precipitation  
Precipitation 0.00 in - - ()
Sea Level Pressure  
Sea Level Pressure 29.96 in    
Wind  
Wind Speed 12 mph (WSW)    
Max Wind Speed 28 mph    
Max Gust Speed 37 mph    
Visibility 10 miles    
Events      
Averages and records for this station are not official NWS values.
T = Trace of Precipitation, MM = Missing Value Source: NWS Daily Summary

Daily Weather History Graph

Daily Weather History Graph

Search for Another Location

Airport or City:

Trip Planner

Search our weather history database for the weather conditions in past years. The results will help you decide how hot, cold, wet, or windy it might be!

Date:

Astronomy

May. 05, 2014 Rise Set
Actual Time 5:55 AM MDT 7:54 PM MDT
Civil Twilight 5:26 AM MDT 8:24 PM MDT
Nautical Twilight 4:51 AM MDT 8:59 PM MDT
Astronomical Twilight 4:12 AM MDT 9:38 PM MDT
Moon 11:17 AM MDT (5/5) 12:40 AM MDT (5/5)
Length of Visible Light 14h 57m
Length of Day
13h 59m
Waxing Crescent, 37% of the Moon is Illuminated
May 5
Waxing Crescent
May 6
First Quarter
May 14
Full
May 21
Last Quarter
May 28
New

Hourly Weather History & Observations

Time (MDT) Temp. Dew Point Humidity Pressure Visibility Wind Dir Wind Speed Gust Speed Precip Events Conditions
12:09 AM 60.3 °F 10.4 °F 14% 30.01 in 10.0 mi WNW 11.5 mph - N/A   Clear
12:29 AM 60.8 °F 10.4 °F 14% 30.01 in 10.0 mi West 12.7 mph 18.4 mph N/A   Clear
12:49 AM 60.8 °F 10.4 °F 14% 30.01 in 10.0 mi West 12.7 mph - N/A   Clear
1:09 AM 60.3 °F 10.4 °F 14% 30.01 in 10.0 mi West 12.7 mph - N/A   Clear
1:29 AM 60.8 °F 10.4 °F 14% 30.00 in 10.0 mi WNW 13.8 mph - N/A   Clear
1:49 AM 61.2 °F 10.2 °F 13% 30.00 in 10.0 mi WNW 13.8 mph - N/A   Clear
2:09 AM 61.0 °F 10.0 °F 13% 30.00 in 10.0 mi West 13.8 mph 20.7 mph N/A   Clear
2:29 AM 60.8 °F 9.9 °F 13% 30.00 in 10.0 mi WNW 13.8 mph - N/A   Clear
2:49 AM 60.8 °F 9.7 °F 13% 30.00 in 10.0 mi WNW 12.7 mph - N/A   Clear
3:09 AM 60.4 °F 9.5 °F 13% 30.00 in 10.0 mi WNW 12.7 mph - N/A   Clear
3:29 AM 61.5 °F 9.3 °F 13% 30.00 in 10.0 mi WNW 13.8 mph 20.7 mph N/A   Clear
3:49 AM 60.6 °F 9.5 °F 13% 30.00 in 10.0 mi WNW 13.8 mph - N/A   Clear
4:09 AM 60.3 °F 9.3 °F 13% 30.00 in 10.0 mi WNW 13.8 mph - N/A   Clear
4:29 AM 59.2 °F 9.3 °F 14% 30.01 in 10.0 mi WNW 13.8 mph - N/A   Clear
4:49 AM 59.4 °F 8.6 °F 13% 30.01 in 10.0 mi WNW 10.4 mph - N/A   Clear
5:09 AM 57.0 °F 9.1 °F 15% 30.01 in 10.0 mi WNW 10.4 mph - N/A   Clear
5:29 AM 55.8 °F 9.0 °F 15% 30.01 in 10.0 mi WNW 9.2 mph - N/A   Clear
5:49 AM 59.7 °F 7.7 °F 13% 30.02 in 10.0 mi WNW 13.8 mph - N/A   Clear
6:09 AM 61.0 °F 7.7 °F 12% 30.02 in 10.0 mi WNW 11.5 mph 19.6 mph N/A   Clear
6:29 AM 59.7 °F 8.4 °F 13% 30.02 in 10.0 mi WNW 11.5 mph - N/A   Clear
6:49 AM 60.4 °F 10.2 °F 14% 30.03 in 10.0 mi WNW 10.4 mph - N/A   Clear
7:09 AM 61.2 °F 11.3 °F 14% 30.04 in 10.0 mi WNW 10.4 mph - N/A   Clear
7:29 AM 62.6 °F 11.5 °F 14% 30.04 in 10.0 mi WNW 13.8 mph - N/A   Clear
7:49 AM 64.0 °F 11.1 °F 13% 30.04 in 10.0 mi WNW 10.4 mph 19.6 mph N/A   Clear
8:09 AM 65.5 °F 10.2 °F 12% 30.04 in 10.0 mi NW 12.7 mph - N/A   Clear
8:29 AM 66.6 °F 9.5 °F 11% 30.04 in 10.0 mi WNW 17.3 mph 21.9 mph N/A   Clear
8:49 AM 67.5 °F 10.6 °F 11% 30.04 in 10.0 mi WNW 16.1 mph 19.6 mph N/A   Clear
9:09 AM 68.0 °F 10.8 °F 11% 30.04 in 10.0 mi NW 12.7 mph 19.6 mph N/A   Clear
9:29 AM 70.7 °F 9.1 °F 9% 30.04 in 10.0 mi WNW 21.9 mph 29.9 mph N/A   Clear
9:36 AM 70.5 °F 8.2 °F 9% 30.04 in 10.0 mi WNW 27.6 mph - N/A   Clear
10:09 AM 71.8 °F 7.2 °F 8% 30.04 in 10.0 mi West 23.0 mph 28.8 mph N/A   Clear
10:29 AM 72.0 °F 8.2 °F 8% 30.04 in 10.0 mi WNW 19.6 mph 26.5 mph N/A   Clear
10:49 AM 72.7 °F 9.1 °F 9% 30.04 in 10.0 mi West 18.4 mph 25.3 mph N/A   Clear
11:09 AM 73.8 °F 9.0 °F 8% 30.04 in 10.0 mi WNW 18.4 mph 24.2 mph N/A   Clear
11:29 AM 73.8 °F 7.9 °F 8% 30.03 in 10.0 mi WNW 5.8 mph - N/A   Clear
12:09 PM 74.8 °F 12.2 °F 9% 30.01 in 10.0 mi ESE 5.8 mph - N/A   Clear
12:29 PM 75.4 °F 10.2 °F 8% 30.00 in 10.0 mi Calm Calm - N/A   Clear
12:49 PM 75.9 °F 13.5 °F 9% 30.00 in 10.0 mi SE 13.8 mph 20.7 mph N/A   Clear
1:09 PM 75.0 °F 12.6 °F 9% 29.99 in 10.0 mi East 11.5 mph 20.7 mph N/A   Clear
1:29 PM 75.7 °F 11.8 °F 9% 29.98 in 10.0 mi Calm Calm - N/A   Clear
1:49 PM 76.5 °F 10.6 °F 8% 29.97 in 10.0 mi South 3.5 mph 9.2 mph N/A   Clear
2:09 PM 77.2 °F 12.0 °F 8% 29.96 in 10.0 mi SSE 12.7 mph 18.4 mph N/A   Clear
2:29 PM 76.6 °F 11.1 °F 8% 29.95 in 10.0 mi South 5.8 mph - N/A   Clear
2:49 PM 77.2 °F 9.9 °F 8% 29.94 in 10.0 mi WSW 4.6 mph 16.1 mph N/A   Clear
3:09 PM 77.7 °F 13.8 °F 9% 29.93 in 10.0 mi SSE 11.5 mph 16.1 mph N/A   Clear
3:29 PM 76.3 °F 13.5 °F 9% 29.92 in 10.0 mi South 12.7 mph 21.9 mph N/A   Clear
3:49 PM 77.0 °F 14.7 °F 9% 29.90 in 7.0 mi SE 17.3 mph 25.3 mph N/A   Clear
4:09 PM 77.9 °F 13.6 °F 9% 29.90 in 10.0 mi South 12.7 mph 19.6 mph N/A   Clear
4:29 PM 76.8 °F 12.9 °F 9% 29.89 in 10.0 mi South 15.0 mph 24.2 mph N/A   Clear
4:49 PM 78.1 °F 13.8 °F 9% 29.88 in 10.0 mi South 16.1 mph 23.0 mph N/A   Clear
5:09 PM 73.6 °F 11.3 °F 9% 29.87 in 10.0 mi South 12.7 mph 36.8 mph N/A   Clear
5:29 PM 76.3 °F 13.3 °F 9% 29.87 in 10.0 mi South 23.0 mph 27.6 mph N/A   Clear
5:49 PM 71.8 °F 11.5 °F 10% 29.86 in 10.0 mi SSW 17.3 mph 26.5 mph N/A   Clear
6:09 PM 71.6 °F 12.7 °F 10% 29.87 in 10.0 mi South 10.4 mph 24.2 mph N/A   Scattered Clouds
6:29 PM 71.1 °F 15.1 °F 12% 29.86 in 10.0 mi South 9.2 mph 17.3 mph N/A   Scattered Clouds
6:49 PM 69.6 °F 14.7 °F 12% 29.86 in 10.0 mi South 16.1 mph - N/A   Clear
7:09 PM 67.3 °F 14.9 °F 13% 29.87 in 10.0 mi South 8.1 mph - N/A   Scattered Clouds
7:29 PM 68.2 °F 14.4 °F 13% 29.87 in 10.0 mi WNW 4.6 mph - N/A   Scattered Clouds
7:49 PM 70.0 °F 12.7 °F 11% 29.87 in 10.0 mi Calm Calm - N/A   Clear
8:09 PM 67.5 °F 15.6 °F 14% 29.87 in 10.0 mi NNW 10.4 mph - N/A   Clear
8:29 PM 67.5 °F 15.3 °F 13% 29.88 in 10.0 mi WNW 4.6 mph 31.1 mph N/A   Scattered Clouds
8:49 PM 67.1 °F 15.1 °F 13% 29.88 in 10.0 mi NNE 5.8 mph - N/A   Scattered Clouds
9:09 PM 64.6 °F 15.4 °F 15% 29.88 in 10.0 mi WNW 4.6 mph - N/A   Scattered Clouds
9:29 PM 61.7 °F 16.3 °F 17% 29.90 in 10.0 mi East 10.4 mph - N/A   Scattered Clouds
9:49 PM 61.9 °F 20.3 °F 20% 29.90 in 10.0 mi ESE 12.7 mph - N/A   Clear
10:09 PM 61.7 °F 22.6 °F 22% 29.90 in 10.0 mi ESE 8.1 mph 20.7 mph N/A   Clear
10:29 PM 61.0 °F 27.7 °F 28% 29.90 in 10.0 mi ESE 10.4 mph - N/A   Clear
10:49 PM 60.6 °F 31.6 °F 34% 29.92 in 10.0 mi ESE 5.8 mph - N/A   Mostly Cloudy
11:09 PM 59.2 °F 34.2 °F 39% 29.90 in 10.0 mi ESE 12.7 mph 18.4 mph N/A   Scattered Clouds
11:29 PM 57.0 °F 34.7 °F 43% 29.90 in 10.0 mi SE 4.6 mph - N/A   Clear
11:49 PM 54.3 °F 35.6 °F 49% 29.89 in 10.0 mi SE 5.8 mph - N/A   Clear